createdAt,value
2017-09-20T00:00:12.796Z,0.00
2017-09-20T00:01:12.840Z,0.00
2017-09-20T00:02:12.823Z,0.00
2017-09-20T00:03:12.872Z,0.00
2017-09-20T00:04:12.918Z,0.00
2017-09-20T00:05:12.964Z,0.00
2017-09-20T00:06:13.072Z,0.00
2017-09-20T00:07:13.055Z,0.00
2017-09-20T00:08:13.106Z,0.00
2017-09-20T00:09:13.151Z,0.00
2017-09-20T00:10:13.201Z,0.00
2017-09-20T00:11:13.323Z,0.00
2017-09-20T00:12:13.303Z,0.00
2017-09-20T00:13:13.338Z,0.00
2017-09-20T00:14:13.385Z,0.00
2017-09-20T00:15:13.431Z,0.00
2017-09-20T00:16:13.563Z,0.00
2017-09-20T00:17:13.532Z,0.00
2017-09-20T00:18:13.573Z,0.00
2017-09-20T00:19:13.620Z,0.00
2017-09-20T00:20:13.666Z,0.00
2017-09-20T00:21:13.776Z,0.00
2017-09-20T00:22:13.820Z,0.00
2017-09-20T00:23:13.808Z,0.00
2017-09-20T00:24:13.855Z,0.00
2017-09-20T00:25:13.900Z,0.00
2017-09-20T00:26:13.948Z,0.00
2017-09-20T00:27:14.897Z,0.00
2017-09-20T00:28:14.051Z,0.00
2017-09-20T00:29:14.089Z,0.00
2017-09-20T00:30:14.131Z,0.00
2017-09-20T00:31:14.182Z,0.00
2017-09-20T00:32:14.291Z,0.00
2017-09-20T00:33:14.275Z,0.00
2017-09-20T00:34:14.321Z,0.00
2017-09-20T00:35:14.370Z,0.00
2017-09-20T00:36:14.414Z,0.00
2017-09-20T00:37:14.529Z,0.00
2017-09-20T00:38:14.510Z,0.00
2017-09-20T00:39:14.556Z,0.00
2017-09-20T00:40:14.603Z,0.00
2017-09-20T00:41:14.647Z,0.00
2017-09-20T00:42:14.759Z,0.00
2017-09-20T00:43:14.745Z,0.00
2017-09-20T00:44:14.792Z,0.00
2017-09-20T00:45:14.837Z,0.00
2017-09-20T00:46:14.884Z,0.00
2017-09-20T00:47:15.005Z,0.00
2017-09-20T00:48:14.979Z,0.00
2017-09-20T00:49:15.026Z,0.00
2017-09-20T00:50:15.072Z,0.00
2017-09-20T00:51:15.118Z,0.00
2017-09-20T00:52:15.247Z,0.00
2017-09-20T00:53:15.214Z,0.00
2017-09-20T00:54:15.258Z,0.00
2017-09-20T00:55:15.307Z,0.00
2017-09-20T00:56:15.356Z,0.00
2017-09-20T00:57:15.485Z,0.00
2017-09-20T00:58:15.446Z,0.00
2017-09-20T00:59:15.493Z,0.00
2017-09-20T01:00:15.539Z,0.00
2017-09-20T01:01:15.588Z,0.00
2017-09-20T01:02:15.714Z,0.00
2017-09-20T01:03:15.679Z,0.00
2017-09-20T01:04:15.730Z,0.00
2017-09-20T01:05:15.774Z,0.00
2017-09-20T01:06:15.818Z,0.00
2017-09-20T01:07:15.933Z,0.00
2017-09-20T01:08:15.989Z,0.00
2017-09-20T01:09:15.960Z,0.00
2017-09-20T01:10:16.006Z,0.00
2017-09-20T01:11:16.055Z,0.00
2017-09-20T01:12:16.101Z,0.00
2017-09-20T01:13:16.212Z,0.00
2017-09-20T01:14:16.194Z,0.00
2017-09-20T01:15:16.244Z,0.00
2017-09-20T01:16:16.291Z,0.00
2017-09-20T01:17:16.336Z,0.00
2017-09-20T01:18:16.457Z,0.00
2017-09-20T01:19:16.429Z,0.00
2017-09-20T01:20:16.476Z,0.00
2017-09-20T01:21:16.528Z,0.00
2017-09-20T01:22:16.571Z,0.00
2017-09-20T01:23:16.681Z,0.00
2017-09-20T01:24:16.736Z,0.00
2017-09-20T01:25:16.713Z,0.00
2017-09-20T01:26:16.754Z,0.00
2017-09-20T01:27:16.810Z,0.00
2017-09-20T01:28:16.857Z,0.00
2017-09-20T01:29:16.965Z,0.00
2017-09-20T01:30:16.945Z,0.00
2017-09-20T01:31:16.993Z,0.00
2017-09-20T01:32:17.041Z,0.00
2017-09-20T01:33:17.087Z,0.00
2017-09-20T01:34:17.200Z,0.00
2017-09-20T01:35:17.180Z,0.00
2017-09-20T01:36:17.229Z,0.00
2017-09-20T01:37:17.275Z,0.00
2017-09-20T01:38:17.322Z,0.00
2017-09-20T01:39:17.431Z,0.00
2017-09-20T01:40:17.415Z,0.00
2017-09-20T01:41:17.461Z,0.00
2017-09-20T01:42:17.511Z,0.00
2017-09-20T01:43:17.557Z,0.00
2017-09-20T01:44:17.667Z,0.00
2017-09-20T01:45:17.655Z,0.00
2017-09-20T01:46:17.696Z,0.00
2017-09-20T01:47:17.745Z,0.00
2017-09-20T01:48:17.789Z,0.00
2017-09-20T01:49:17.902Z,0.00
2017-09-20T01:50:17.884Z,0.00
2017-09-20T01:51:17.931Z,0.00
2017-09-20T01:52:17.977Z,0.00
2017-09-20T01:53:18.024Z,0.00
2017-09-20T01:54:18.139Z,0.00
2017-09-20T01:55:18.119Z,0.00
2017-09-20T01:56:18.170Z,0.00
2017-09-20T01:57:18.212Z,0.00
2017-09-20T01:58:18.262Z,0.00
2017-09-20T01:59:18.393Z,0.00
2017-09-20T02:00:18.359Z,0.00
2017-09-20T02:01:18.403Z,0.00
2017-09-20T02:02:18.447Z,0.00
2017-09-20T02:03:18.496Z,0.00
2017-09-20T02:04:18.619Z,0.00
2017-09-20T02:05:18.590Z,0.00
2017-09-20T02:06:18.635Z,0.00
2017-09-20T02:07:18.679Z,0.00
2017-09-20T02:08:18.728Z,0.00
2017-09-20T02:09:18.847Z,0.00
2017-09-20T02:10:18.885Z,0.00
2017-09-20T02:11:18.870Z,0.00
2017-09-20T02:12:18.916Z,0.00
2017-09-20T02:13:18.960Z,0.00
2017-09-20T02:14:19.014Z,0.00
2017-09-20T02:15:19.119Z,0.00
2017-09-20T02:16:19.102Z,0.00
2017-09-20T02:17:19.149Z,0.00
2017-09-20T02:18:19.195Z,0.00
2017-09-20T02:19:19.242Z,0.00
2017-09-20T02:20:19.484Z,0.00
2017-09-20T02:21:19.340Z,0.00
2017-09-20T02:22:19.388Z,0.00
2017-09-20T02:23:19.427Z,0.00
2017-09-20T02:24:19.476Z,0.00
2017-09-20T02:25:19.597Z,0.00
2017-09-20T02:26:19.569Z,0.00
2017-09-20T02:27:19.618Z,0.00
2017-09-20T02:28:19.667Z,0.00
2017-09-20T02:29:19.711Z,0.00
2017-09-20T02:30:19.832Z,0.00
2017-09-20T02:31:19.802Z,0.00
2017-09-20T02:32:19.852Z,0.00
2017-09-20T02:33:19.900Z,0.00
2017-09-20T02:34:19.945Z,0.00
2017-09-20T02:35:20.056Z,0.00
2017-09-20T02:36:20.100Z,0.00
2017-09-20T02:37:20.088Z,0.00
2017-09-20T02:38:20.129Z,0.00
2017-09-20T02:39:20.181Z,0.00
2017-09-20T02:40:20.233Z,0.00
2017-09-20T02:41:20.337Z,0.00
2017-09-20T02:42:20.320Z,0.00
2017-09-20T02:43:20.367Z,0.00
2017-09-20T02:44:20.411Z,0.00
2017-09-20T02:45:20.460Z,0.00
2017-09-20T02:46:20.570Z,0.00
2017-09-20T02:47:20.556Z,0.00
2017-09-20T02:48:20.602Z,0.00
2017-09-20T02:49:20.648Z,0.00
2017-09-20T02:50:20.697Z,0.00
2017-09-20T02:51:20.806Z,0.00
2017-09-20T02:52:20.788Z,0.00
2017-09-20T02:53:20.837Z,0.00
2017-09-20T02:54:20.885Z,0.00
2017-09-20T02:55:20.926Z,0.00
2017-09-20T02:56:21.049Z,0.00
2017-09-20T02:57:21.024Z,0.00
2017-09-20T02:58:21.068Z,0.00
2017-09-20T02:59:21.116Z,0.00
2017-09-20T03:00:21.162Z,0.00
2017-09-20T03:01:21.274Z,0.00
2017-09-20T03:02:21.320Z,0.00
2017-09-20T03:03:21.304Z,0.00
2017-09-20T03:04:21.350Z,0.00
2017-09-20T03:05:21.396Z,0.00
2017-09-20T03:06:21.442Z,0.00
2017-09-20T03:07:21.552Z,0.00
2017-09-20T03:08:21.538Z,0.00
2017-09-20T03:09:21.585Z,0.00
2017-09-20T03:10:21.631Z,0.00
2017-09-20T03:11:21.683Z,0.00
2017-09-20T03:12:21.784Z,0.00
2017-09-20T03:13:21.773Z,0.00
2017-09-20T03:14:21.816Z,0.00
2017-09-20T03:15:21.865Z,0.00
2017-09-20T03:16:21.915Z,0.00
2017-09-20T03:17:22.027Z,0.00
2017-09-20T03:18:22.005Z,0.00
2017-09-20T03:19:22.052Z,0.00
2017-09-20T03:20:22.100Z,0.00
2017-09-20T03:21:22.146Z,0.00
2017-09-20T03:22:22.257Z,0.00
2017-09-20T03:23:22.240Z,0.00
2017-09-20T03:24:22.288Z,0.00
2017-09-20T03:25:22.330Z,0.00
2017-09-20T03:26:22.379Z,0.00
2017-09-20T03:27:22.503Z,0.00
2017-09-20T03:28:22.474Z,0.00
2017-09-20T03:29:22.524Z,0.00
2017-09-20T03:30:22.570Z,0.00
2017-09-20T03:31:22.614Z,0.00
2017-09-20T03:32:22.726Z,0.00
2017-09-20T03:33:22.773Z,0.00
2017-09-20T03:34:22.756Z,0.00
2017-09-20T03:35:22.804Z,0.00
2017-09-20T03:36:22.847Z,0.00
2017-09-20T03:37:22.900Z,0.00
2017-09-20T03:38:23.042Z,0.00
2017-09-20T03:39:22.988Z,0.00
2017-09-20T03:40:23.037Z,0.00
2017-09-20T03:41:23.083Z,0.00
2017-09-20T03:42:23.127Z,0.00
2017-09-20T03:43:23.240Z,0.00
2017-09-20T03:44:23.289Z,0.00
2017-09-20T03:45:23.269Z,0.00
2017-09-20T03:46:23.315Z,0.00
2017-09-20T03:47:23.362Z,0.00
2017-09-20T03:48:23.408Z,0.00
2017-09-20T03:49:23.521Z,0.00
2017-09-20T03:50:23.502Z,0.00
2017-09-20T03:51:23.553Z,0.00
2017-09-20T03:52:23.597Z,0.00
2017-09-20T03:53:23.643Z,0.00
2017-09-20T03:54:23.753Z,0.00
2017-09-20T03:55:23.736Z,0.00
2017-09-20T03:56:23.784Z,0.00
2017-09-20T03:57:23.832Z,0.00
2017-09-20T03:58:23.876Z,0.00
2017-09-20T03:59:23.985Z,0.00
2017-09-20T04:00:23.970Z,0.00
2017-09-20T04:01:24.017Z,0.00
2017-09-20T04:02:24.065Z,0.00
2017-09-20T04:03:24.110Z,0.00
2017-09-20T04:04:24.243Z,0.00
2017-09-20T04:05:24.206Z,0.00
2017-09-20T04:06:24.253Z,0.00
2017-09-20T04:07:24.296Z,0.00
2017-09-20T04:08:24.340Z,0.00
2017-09-20T04:09:24.466Z,0.00
2017-09-20T04:10:24.435Z,0.00
2017-09-20T04:11:24.482Z,0.00
2017-09-20T04:12:24.531Z,0.00
2017-09-20T04:13:24.577Z,0.00
2017-09-20T04:14:24.687Z,0.00
2017-09-20T04:15:24.731Z,0.00
2017-09-20T04:16:24.722Z,0.00
2017-09-20T04:17:24.763Z,0.00
2017-09-20T04:18:24.809Z,0.00
2017-09-20T04:19:24.856Z,0.00
2017-09-20T04:20:24.968Z,0.00
2017-09-20T04:21:24.952Z,0.00
2017-09-20T04:22:25.003Z,0.00
2017-09-20T04:23:25.044Z,0.00
2017-09-20T04:24:25.090Z,0.00
2017-09-20T04:25:25.224Z,0.00
2017-09-20T04:26:25.187Z,0.00
2017-09-20T04:27:25.227Z,0.00
2017-09-20T04:28:25.276Z,0.00
2017-09-20T04:29:25.324Z,0.00
2017-09-20T04:30:25.444Z,0.00
2017-09-20T04:31:25.422Z,0.00
2017-09-20T04:32:25.464Z,0.00
2017-09-20T04:33:25.511Z,0.00
2017-09-20T04:34:25.554Z,0.00
2017-09-20T04:35:25.682Z,0.00
2017-09-20T04:36:26.411Z,0.00
2017-09-20T04:37:25.699Z,0.00
2017-09-20T04:38:25.746Z,0.00
2017-09-20T04:39:25.795Z,0.00
2017-09-20T04:40:25.839Z,0.00
2017-09-20T04:41:25.950Z,0.00
2017-09-20T04:42:25.932Z,0.00
2017-09-20T04:43:25.981Z,0.00
2017-09-20T04:44:26.027Z,0.00
2017-09-20T04:45:26.073Z,0.00
2017-09-20T04:46:26.189Z,0.00
2017-09-20T04:47:26.167Z,0.00
2017-09-20T04:48:26.213Z,4.00
2017-09-20T04:49:26.257Z,0.00
2017-09-20T04:50:26.311Z,4.00
2017-09-20T04:51:26.420Z,4.00
2017-09-20T04:52:26.402Z,8.00
2017-09-20T04:53:26.448Z,12.00
2017-09-20T04:54:26.494Z,12.00
2017-09-20T04:55:26.541Z,12.00
2017-09-20T04:56:26.669Z,16.00
2017-09-20T04:57:26.636Z,16.00
2017-09-20T04:58:26.679Z,20.00
2017-09-20T04:59:26.730Z,28.00
2017-09-20T05:00:26.776Z,36.00
2017-09-20T05:01:26.885Z,44.00
2017-09-20T05:02:26.932Z,48.00
2017-09-20T05:03:26.915Z,52.00
2017-09-20T05:04:26.963Z,60.00
2017-09-20T05:05:27.013Z,64.00
2017-09-20T05:06:27.057Z,72.00
2017-09-20T05:07:27.164Z,84.00
2017-09-20T05:08:27.150Z,92.00
2017-09-20T05:09:27.196Z,104.00
2017-09-20T05:10:27.242Z,124.00
2017-09-20T05:11:27.289Z,132.00
2017-09-20T05:12:27.399Z,136.00
2017-09-20T05:13:27.385Z,136.00
2017-09-20T05:14:27.430Z,132.00
2017-09-20T05:15:27.480Z,132.00
2017-09-20T05:16:27.529Z,140.00
2017-09-20T05:17:27.636Z,160.00
2017-09-20T05:18:27.616Z,184.00
2017-09-20T05:19:27.666Z,208.00
2017-09-20T05:20:27.713Z,244.00
2017-09-20T05:21:27.758Z,284.00
2017-09-20T05:22:27.879Z,332.00
2017-09-20T05:23:27.849Z,384.00
2017-09-20T05:24:27.897Z,436.00
2017-09-20T05:25:27.945Z,508.00
2017-09-20T05:26:27.991Z,592.00
2017-09-20T05:27:28.106Z,668.00
2017-09-20T05:28:28.149Z,740.00
2017-09-20T05:29:28.132Z,796.00
2017-09-20T05:30:28.918Z,828.00
2017-09-20T05:31:28.225Z,876.00
2017-09-20T05:32:28.271Z,920.00
2017-09-20T05:33:28.383Z,984.00
2017-09-20T05:34:28.362Z,1056.00
2017-09-20T05:35:28.408Z,1108.00
2017-09-20T05:36:28.458Z,1164.00
2017-09-20T05:37:28.506Z,1200.00
2017-09-20T05:38:28.635Z,1232.00
2017-09-20T05:39:28.596Z,1268.00
2017-09-20T05:40:28.646Z,1316.00
2017-09-20T05:41:28.692Z,1344.00
2017-09-20T05:42:28.739Z,1336.00
2017-09-20T05:43:28.849Z,1312.00
2017-09-20T05:44:28.895Z,1264.00
2017-09-20T05:45:28.881Z,1236.00
2017-09-20T05:46:28.924Z,1236.00
2017-09-20T05:47:28.968Z,1264.00
2017-09-20T05:48:29.020Z,1316.00
2017-09-20T05:49:29.130Z,1368.00
2017-09-20T05:50:29.110Z,1412.00
2017-09-20T05:51:29.159Z,1408.00
2017-09-20T05:52:29.206Z,1360.00
2017-09-20T05:53:29.252Z,1316.00
2017-09-20T05:54:29.381Z,1316.00
2017-09-20T05:55:29.351Z,1340.00
2017-09-20T05:56:29.391Z,1336.00
2017-09-20T05:57:29.441Z,1288.00
2017-09-20T05:58:29.484Z,1212.00
2017-09-20T05:59:29.619Z,1136.00
2017-09-20T06:00:29.580Z,1068.00
2017-09-20T06:01:29.629Z,1024.00
2017-09-20T06:02:29.673Z,1000.00
2017-09-20T06:03:29.719Z,996.00
2017-09-20T06:04:29.844Z,1040.00
2017-09-20T06:05:29.812Z,1116.00
2017-09-20T06:06:29.858Z,1152.00
2017-09-20T06:07:29.904Z,1148.00
2017-09-20T06:08:29.954Z,1080.00
2017-09-20T06:09:30.082Z,1136.00
2017-09-20T06:10:30.047Z,1208.00
2017-09-20T06:11:30.093Z,1228.00
2017-09-20T06:12:30.139Z,1236.00
2017-09-20T06:13:30.185Z,1244.00
2017-09-20T06:14:30.304Z,1304.00
2017-09-20T06:15:30.345Z,1404.00
2017-09-20T06:16:30.328Z,1508.00
2017-09-20T06:17:30.374Z,1576.00
2017-09-20T06:18:30.419Z,1592.00
2017-09-20T06:19:30.468Z,1576.00
2017-09-20T06:20:30.577Z,1552.00
2017-09-20T06:21:30.558Z,1572.00
2017-09-20T06:22:30.606Z,1564.00
2017-09-20T06:23:30.656Z,1472.00
2017-09-20T06:24:30.700Z,1348.00
2017-09-20T06:25:30.815Z,1212.00
2017-09-20T06:26:30.795Z,1104.00
2017-09-20T06:27:30.842Z,1056.00
2017-09-20T06:28:30.888Z,1032.00
2017-09-20T06:29:30.937Z,1024.00
2017-09-20T06:30:31.046Z,1024.00
2017-09-20T06:31:31.028Z,1076.00
2017-09-20T06:32:31.073Z,1136.00
2017-09-20T06:33:31.122Z,1148.00
2017-09-20T06:34:31.173Z,1140.00
2017-09-20T06:35:31.282Z,1136.00
2017-09-20T06:36:31.261Z,1164.00
2017-09-20T06:37:31.308Z,1204.00
2017-09-20T06:38:31.352Z,1248.00
2017-09-20T06:39:31.401Z,1288.00
2017-09-20T06:40:31.530Z,1332.00
2017-09-20T06:41:31.494Z,1420.00
2017-09-20T06:42:32.065Z,1548.00
2017-09-20T06:43:31.584Z,1648.00
2017-09-20T06:44:31.638Z,1708.00
2017-09-20T06:45:31.746Z,1756.00
2017-09-20T06:46:31.790Z,1792.00
2017-09-20T06:47:31.775Z,1848.00
2017-09-20T06:48:31.822Z,1948.00
2017-09-20T06:49:31.874Z,2124.00
2017-09-20T06:50:31.915Z,2356.00
2017-09-20T06:51:32.027Z,2620.00
2017-09-20T06:52:32.010Z,2908.00
2017-09-20T06:53:32.056Z,3268.00
2017-09-20T06:54:32.103Z,3724.00
2017-09-20T06:55:32.155Z,4272.00
2017-09-20T06:56:32.265Z,4896.00
2017-09-20T06:57:32.245Z,5448.00
2017-09-20T06:58:32.289Z,5520.00
2017-09-20T06:59:32.338Z,5300.00
2017-09-20T07:00:32.385Z,5224.00
2017-09-20T07:01:32.500Z,5392.00
2017-09-20T07:02:32.478Z,5660.00
2017-09-20T07:03:32.524Z,6148.00
2017-09-20T07:04:32.567Z,6580.00
2017-09-20T07:05:32.619Z,6676.00
2017-09-20T07:06:32.732Z,6540.00
2017-09-20T07:07:32.712Z,6252.00
2017-09-20T07:08:32.758Z,6088.00
2017-09-20T07:09:32.805Z,6240.00
2017-09-20T07:10:32.852Z,6616.00
2017-09-20T07:11:32.961Z,7012.00
2017-09-20T07:12:33.018Z,7280.00
2017-09-20T07:13:32.993Z,7460.00
2017-09-20T07:14:33.042Z,7588.00
2017-09-20T07:15:33.086Z,7716.00
2017-09-20T07:16:33.130Z,7764.00
2017-09-20T07:17:33.281Z,7776.00
2017-09-20T07:18:33.226Z,7740.00
2017-09-20T07:19:33.275Z,7672.00
2017-09-20T07:20:33.321Z,7804.00
2017-09-20T07:21:33.367Z,8272.00
2017-09-20T07:22:33.499Z,8728.00
2017-09-20T07:23:33.466Z,9100.00
2017-09-20T07:24:33.509Z,9528.00
2017-09-20T07:25:33.556Z,10264.00
2017-09-20T07:26:33.602Z,11216.00
2017-09-20T07:27:33.728Z,12364.00
2017-09-20T07:28:33.693Z,13080.00
2017-09-20T07:29:33.744Z,13184.00
2017-09-20T07:30:33.790Z,12516.00
2017-09-20T07:31:33.837Z,11516.00
2017-09-20T07:32:33.957Z,10416.00
2017-09-20T07:33:33.932Z,9452.00
2017-09-20T07:34:33.979Z,8896.00
2017-09-20T07:35:34.025Z,8672.00
2017-09-20T07:36:34.072Z,8756.00
2017-09-20T07:37:34.184Z,9496.00
2017-09-20T07:38:34.230Z,10096.00
2017-09-20T07:39:34.214Z,9976.00
2017-09-20T07:40:34.263Z,9496.00
2017-09-20T07:41:34.309Z,8936.00
2017-09-20T07:42:34.353Z,7944.00
2017-09-20T07:43:34.466Z,7024.00
2017-09-20T07:44:34.448Z,6344.00
2017-09-20T07:45:34.498Z,5884.00
2017-09-20T07:46:34.544Z,5500.00
2017-09-20T07:47:34.593Z,5204.00
2017-09-20T07:48:34.703Z,4984.00
2017-09-20T07:49:34.689Z,4908.00
2017-09-20T07:50:34.730Z,5032.00
2017-09-20T07:51:34.775Z,5184.00
2017-09-20T07:52:34.825Z,5216.00
2017-09-20T07:53:34.944Z,5088.00
2017-09-20T07:54:34.916Z,4788.00
2017-09-20T07:55:34.967Z,4496.00
2017-09-20T07:56:35.014Z,4332.00
2017-09-20T07:57:35.060Z,4228.00
2017-09-20T07:58:35.173Z,4080.00
2017-09-20T07:59:35.156Z,3940.00
2017-09-20T08:00:35.202Z,3736.00
2017-09-20T08:01:35.248Z,3540.00
2017-09-20T08:02:35.295Z,3412.00
2017-09-20T08:03:35.429Z,3300.00
2017-09-20T08:04:35.388Z,3200.00
2017-09-20T08:05:35.437Z,3092.00
2017-09-20T08:06:35.483Z,3024.00
2017-09-20T08:07:35.535Z,2904.00
2017-09-20T08:08:35.650Z,2904.00
2017-09-20T08:09:35.622Z,2828.00
2017-09-20T08:10:35.666Z,2824.00
2017-09-20T08:11:35.715Z,2908.00
2017-09-20T08:12:35.767Z,3060.00
2017-09-20T08:13:39.023Z,3220.00
2017-09-20T08:14:35.858Z,3372.00
2017-09-20T08:15:35.904Z,3344.00
2017-09-20T08:16:35.950Z,3216.00
2017-09-20T08:17:36.002Z,3196.00
2017-09-20T08:18:36.040Z,3216.00
2017-09-20T08:19:36.156Z,3252.00
2017-09-20T08:20:36.144Z,3340.00
2017-09-20T08:21:36.185Z,3480.00
2017-09-20T08:22:36.231Z,3652.00
2017-09-20T08:23:36.278Z,3828.00
2017-09-20T08:24:36.390Z,3776.00
2017-09-20T08:25:36.374Z,3752.00
2017-09-20T08:26:36.417Z,3724.00
2017-09-20T08:27:36.466Z,3884.00
2017-09-20T08:28:36.513Z,4292.00
2017-09-20T08:29:36.628Z,5020.00
2017-09-20T08:30:36.606Z,5816.00
2017-09-20T08:31:36.651Z,6564.00
2017-09-20T08:32:36.704Z,7080.00
2017-09-20T08:33:36.748Z,7536.00
2017-09-20T08:34:36.886Z,7704.00
2017-09-20T08:35:36.840Z,7904.00
2017-09-20T08:36:36.887Z,7532.00
2017-09-20T08:37:36.938Z,6928.00
2017-09-20T08:38:36.985Z,6596.00
2017-09-20T08:39:37.111Z,6300.00
2017-09-20T08:40:37.076Z,5888.00
2017-09-20T08:41:37.122Z,5672.00
2017-09-20T08:42:37.168Z,5528.00
2017-09-20T08:43:37.214Z,5640.00
2017-09-20T08:44:37.510Z,6216.00
2017-09-20T08:45:37.307Z,7184.00
2017-09-20T08:46:37.353Z,7944.00
2017-09-20T08:47:37.403Z,8548.00
2017-09-20T08:48:37.450Z,9548.00
2017-09-20T08:49:37.496Z,10212.00
2017-09-20T08:50:37.606Z,11736.00
2017-09-20T08:51:37.591Z,12596.00
2017-09-20T08:52:37.637Z,13504.00
2017-09-20T08:53:37.692Z,13936.00
2017-09-20T08:54:37.736Z,14408.00
2017-09-20T08:55:37.841Z,14692.00
2017-09-20T08:56:37.829Z,15020.00
2017-09-20T08:57:37.872Z,15172.00
2017-09-20T08:58:37.919Z,14328.00
2017-09-20T08:59:37.965Z,14136.00
2017-09-20T09:00:38.081Z,13496.00
2017-09-20T09:01:38.061Z,13400.00
2017-09-20T09:02:38.108Z,13492.00
2017-09-20T09:03:38.154Z,13924.00
2017-09-20T09:04:38.200Z,14508.00
2017-09-20T09:05:38.313Z,16196.00
2017-09-20T09:06:38.296Z,18976.00
2017-09-20T09:07:38.342Z,22080.00
2017-09-20T09:08:38.386Z,25568.00
2017-09-20T09:09:38.437Z,28800.00
2017-09-20T09:10:38.574Z,32224.00
2017-09-20T09:11:38.530Z,34624.00
2017-09-20T09:12:38.579Z,36832.00
2017-09-20T09:13:38.626Z,39136.00
2017-09-20T09:14:38.672Z,38304.00
2017-09-20T09:15:38.806Z,38528.00
2017-09-20T09:16:38.770Z,45344.00
2017-09-20T09:17:38.816Z,38720.00
2017-09-20T09:18:38.863Z,32064.00
2017-09-20T09:19:38.912Z,27488.00
2017-09-20T09:20:39.033Z,24832.00
2017-09-20T09:21:39.008Z,22720.00
2017-09-20T09:22:39.054Z,21568.00
2017-09-20T09:23:39.101Z,20608.00
2017-09-20T09:24:39.149Z,19584.00
2017-09-20T09:25:39.265Z,19072.00
2017-09-20T09:26:39.311Z,18400.00
2017-09-20T09:27:39.292Z,17984.00
2017-09-20T09:28:39.344Z,17824.00
2017-09-20T09:29:39.388Z,17600.00
2017-09-20T09:30:39.440Z,17728.00
2017-09-20T09:31:39.549Z,17920.00
2017-09-20T09:32:39.532Z,17888.00
2017-09-20T09:33:39.579Z,18336.00
2017-09-20T09:34:39.627Z,18944.00
2017-09-20T09:35:39.674Z,20000.00
2017-09-20T09:36:39.783Z,21184.00
2017-09-20T09:37:39.772Z,22976.00
2017-09-20T09:38:39.816Z,24480.00
2017-09-20T09:39:39.868Z,26016.00
2017-09-20T09:40:39.914Z,27072.00
2017-09-20T09:41:40.034Z,28000.00
2017-09-20T09:42:40.007Z,30208.00
2017-09-20T09:43:40.054Z,32512.00
2017-09-20T09:44:40.103Z,92768.00
2017-09-20T09:45:40.151Z,39680.00
2017-09-20T09:46:40.261Z,94368.00
2017-09-20T09:47:40.313Z,38720.00
2017-09-20T09:48:40.293Z,36704.00
2017-09-20T09:49:40.342Z,40384.00
2017-09-20T09:50:40.392Z,70304.00
2017-09-20T09:51:40.441Z,71008.00
2017-09-20T09:52:40.550Z,48992.00
2017-09-20T09:53:40.533Z,67264.00
2017-09-20T09:54:40.587Z,44992.00
2017-09-20T09:55:40.632Z,41024.00
2017-09-20T09:56:40.681Z,40928.00
2017-09-20T09:57:40.793Z,39456.00
2017-09-20T09:58:40.774Z,38208.00
2017-09-20T09:59:40.828Z,37088.00
2017-09-20T10:00:40.869Z,37792.00
2017-09-20T10:01:40.918Z,38976.00
2017-09-20T10:02:41.033Z,44608.00
2017-09-20T10:03:41.017Z,92064.00
2017-09-20T10:04:41.065Z,81792.00
2017-09-20T10:05:41.111Z,76928.00
2017-09-20T10:06:41.161Z,47392.00
2017-09-20T10:07:41.279Z,37504.00
2017-09-20T10:08:41.259Z,31776.00
2017-09-20T10:09:41.309Z,28352.00
2017-09-20T10:10:41.373Z,26112.00
2017-09-20T10:11:41.402Z,24096.00
2017-09-20T10:12:41.533Z,22400.00
2017-09-20T10:13:41.505Z,22112.00
2017-09-20T10:14:41.548Z,21120.00
2017-09-20T10:15:41.600Z,22016.00
2017-09-20T10:16:41.649Z,23328.00
2017-09-20T10:17:41.762Z,26080.00
2017-09-20T10:18:41.808Z,27008.00
2017-09-20T10:19:41.797Z,29952.00
2017-09-20T10:20:41.843Z,34272.00
2017-09-20T10:21:41.893Z,36064.00
2017-09-20T10:22:41.940Z,35872.00
2017-09-20T10:23:42.051Z,38208.00
2017-09-20T10:24:42.038Z,42432.00
2017-09-20T10:25:42.086Z,52992.00
2017-09-20T10:26:42.135Z,39744.00
2017-09-20T10:27:42.184Z,48224.00
2017-09-20T10:28:42.296Z,44672.00
2017-09-20T10:29:42.282Z,50272.00
2017-09-20T10:30:42.326Z,42976.00
2017-09-20T10:31:42.383Z,35328.00
2017-09-20T10:32:42.426Z,39584.00
2017-09-20T10:33:42.539Z,102208.00
2017-09-20T10:34:42.527Z,37472.00
2017-09-20T10:35:42.571Z,29728.00
2017-09-20T10:36:42.622Z,31712.00
2017-09-20T10:37:42.669Z,42944.00
2017-09-20T10:38:42.800Z,105920.00
2017-09-20T10:39:42.765Z,110304.00
2017-09-20T10:40:42.814Z,77760.00
2017-09-20T10:41:42.867Z,42784.00
2017-09-20T10:42:42.912Z,39744.00
2017-09-20T10:43:43.027Z,38528.00
2017-09-20T10:44:43.077Z,34560.00
2017-09-20T10:45:43.062Z,30880.00
2017-09-20T10:46:43.123Z,27808.00
2017-09-20T10:47:43.161Z,26272.00
2017-09-20T10:48:43.209Z,25376.00
2017-09-20T10:49:43.329Z,26368.00
2017-09-20T10:50:43.310Z,27968.00
2017-09-20T10:51:43.359Z,32320.00
2017-09-20T10:52:43.405Z,95264.00
2017-09-20T10:53:43.459Z,45248.00
2017-09-20T10:54:43.570Z,67136.00
2017-09-20T10:55:43.555Z,55328.00
2017-09-20T10:56:43.605Z,50592.00
2017-09-20T10:57:43.653Z,56768.00
2017-09-20T10:58:43.703Z,48288.00
2017-09-20T10:59:43.818Z,47616.00
2017-09-20T11:00:43.800Z,48960.00
2017-09-20T11:01:43.853Z,71296.00
2017-09-20T11:02:43.901Z,83104.00
2017-09-20T11:03:43.953Z,78656.00
2017-09-20T11:04:44.076Z,53600.00
2017-09-20T11:05:44.046Z,50816.00
2017-09-20T11:06:44.100Z,61536.00
2017-09-20T11:07:44.147Z,82048.00
2017-09-20T11:08:44.200Z,72736.00
2017-09-20T11:09:44.315Z,54176.00
2017-09-20T11:10:44.360Z,73216.00
2017-09-20T11:11:44.345Z,52288.00
2017-09-20T11:12:44.398Z,50528.00
2017-09-20T11:13:44.447Z,76800.00
2017-09-20T11:14:44.501Z,55104.00
2017-09-20T11:15:44.608Z,51648.00
2017-09-20T11:16:44.596Z,47616.00
2017-09-20T11:17:44.642Z,44544.00
2017-09-20T11:18:44.699Z,101024.00
2017-09-20T11:19:44.741Z,67840.00
2017-09-20T11:20:44.879Z,49184.00
2017-09-20T11:21:44.845Z,113376.00
2017-09-20T11:22:44.896Z,118272.00
2017-09-20T11:23:44.943Z,87616.00
2017-09-20T11:24:44.994Z,61184.00
2017-09-20T11:25:45.114Z,106816.00
2017-09-20T11:26:45.156Z,148928.00
2017-09-20T11:27:45.142Z,146208.00
2017-09-20T11:28:45.196Z,105856.00
2017-09-20T11:29:45.248Z,102912.00
2017-09-20T11:30:45.312Z,107808.00
2017-09-20T11:31:45.409Z,113632.00
2017-09-20T11:32:45.398Z,94432.00
2017-09-20T11:33:45.447Z,107328.00
2017-09-20T11:34:45.495Z,98368.00
2017-09-20T11:35:45.550Z,97632.00
2017-09-20T11:36:45.665Z,102048.00
2017-09-20T11:37:45.651Z,92384.00
2017-09-20T11:38:45.700Z,93440.00
2017-09-20T11:39:45.752Z,109600.00
2017-09-20T11:40:45.803Z,112384.00
2017-09-20T11:41:45.918Z,120576.00
2017-09-20T11:42:45.907Z,108832.00
2017-09-20T11:43:45.957Z,118112.00
2017-09-20T11:44:46.013Z,99776.00
2017-09-20T11:45:46.062Z,105728.00
2017-09-20T11:46:46.177Z,105824.00
2017-09-20T11:47:46.166Z,88704.00
2017-09-20T11:48:46.218Z,76320.00
2017-09-20T11:49:46.270Z,72672.00
2017-09-20T11:50:46.321Z,54848.00
2017-09-20T11:51:46.457Z,49888.00
2017-09-20T11:52:46.424Z,49440.00
2017-09-20T11:53:46.476Z,52448.00
2017-09-20T11:54:46.528Z,55584.00
2017-09-20T11:55:46.582Z,50464.00
2017-09-20T11:56:46.710Z,55008.00
2017-09-20T11:57:46.683Z,67872.00
2017-09-20T11:58:46.735Z,67424.00
2017-09-20T11:59:46.788Z,68416.00
2017-09-20T12:00:46.837Z,70912.00
2017-09-20T12:01:46.964Z,71936.00
2017-09-20T12:02:46.942Z,57376.00
2017-09-20T12:03:46.990Z,51232.00
2017-09-20T12:04:47.047Z,45824.00
2017-09-20T12:05:47.096Z,51232.00
2017-09-20T12:06:47.236Z,44224.00
2017-09-20T12:07:47.202Z,40384.00
2017-09-20T12:08:47.249Z,36096.00
2017-09-20T12:09:47.300Z,30080.00
2017-09-20T12:10:47.353Z,28672.00
2017-09-20T12:11:47.484Z,29056.00
2017-09-20T12:12:47.453Z,29536.00
2017-09-20T12:13:47.512Z,29312.00
2017-09-20T12:14:47.555Z,28768.00
2017-09-20T12:15:47.606Z,28064.00
2017-09-20T12:16:47.742Z,27648.00
2017-09-20T12:17:47.709Z,28960.00
2017-09-20T12:18:47.758Z,28992.00
2017-09-20T12:19:47.808Z,27904.00
2017-09-20T12:20:47.861Z,26848.00
2017-09-20T12:21:48.001Z,25856.00
2017-09-20T12:22:47.961Z,24544.00
2017-09-20T12:23:48.007Z,23584.00
2017-09-20T12:24:48.061Z,22592.00
2017-09-20T12:25:48.110Z,21920.00
2017-09-20T12:26:48.241Z,21376.00